sensor_id;sensor_type;location;lat;lon;timestamp;temperature;humidity
11540;DHT22;5826;54.756;9.192;2022-09-21T00:01:09;10.70;99.90
11540;DHT22;5826;54.756;9.192;2022-09-21T00:03:37;10.70;99.90
11540;DHT22;5826;54.756;9.192;2022-09-21T00:06:08;10.60;99.90
11540;DHT22;5826;54.756;9.192;2022-09-21T00:08:34;10.60;99.90
11540;DHT22;5826;54.756;9.192;2022-09-21T00:11:00;10.60;99.90
11540;DHT22;5826;54.756;9.192;2022-09-21T00:13:26;10.50;99.90
11540;DHT22;5826;54.756;9.192;2022-09-21T00:15:56;10.50;99.90
11540;DHT22;5826;54.756;9.192;2022-09-21T00:18:22;10.50;99.90
11540;DHT22;5826;54.756;9.192;2022-09-21T00:20:48;10.50;99.90
11540;DHT22;5826;54.756;9.192;2022-09-21T00:23:14;10.40;99.90
11540;DHT22;5826;54.756;9.192;2022-09-21T00:25:40;10.40;99.90
11540;DHT22;5826;54.756;9.192;2022-09-21T00:28:05;10.40;99.90
11540;DHT22;5826;54.756;9.192;2022-09-21T00:30:31;10.40;99.90
11540;DHT22;5826;54.756;9.192;2022-09-21T00:32:56;10.40;99.90
11540;DHT22;5826;54.756;9.192;2022-09-21T00:35:22;10.40;99.90
11540;DHT22;5826;54.756;9.192;2022-09-21T00:37:47;10.30;99.90
11540;DHT22;5826;54.756;9.192;2022-09-21T00:40:13;10.30;99.90
11540;DHT22;5826;54.756;9.192;2022-09-21T00:42:38;10.30;99.90
11540;DHT22;5826;54.756;9.192;2022-09-21T00:45:04;10.20;99.90
11540;DHT22;5826;54.756;9.192;2022-09-21T00:47:34;10.20;99.90
11540;DHT22;5826;54.756;9.192;2022-09-21T00:50:04;10.20;99.90
11540;DHT22;5826;54.756;9.192;2022-09-21T00:52:34;10.20;99.90
11540;DHT22;5826;54.756;9.192;2022-09-21T00:57:33;10.10;99.90
11540;DHT22;5826;54.756;9.192;2022-09-21T01:00:01;10.10;99.90
11540;DHT22;5826;54.756;9.192;2022-09-21T01:02:27;10.00;99.90
11540;DHT22;5826;54.756;9.192;2022-09-21T01:04:53;10.00;99.90
11540;DHT22;5826;54.756;9.192;2022-09-21T01:07:22;10.00;99.90
11540;DHT22;5826;54.756;9.192;2022-09-21T01:09:52;9.90;99.90
11540;DHT22;5826;54.756;9.192;2022-09-21T01:15:35;9.90;99.90
11540;DHT22;5826;54.756;9.192;2022-09-21T01:18:27;9.80;99.90
11540;DHT22;5826;54.756;9.192;2022-09-21T01:21:18;9.80;99.90
11540;DHT22;5826;54.756;9.192;2022-09-21T01:29:36;9.70;99.90
11540;DHT22;5826;54.756;9.192;2022-09-21T01:32:14;9.70;99.90
11540;DHT22;5826;54.756;9.192;2022-09-21T01:35:12;9.70;99.90
11540;DHT22;5826;54.756;9.192;2022-09-21T01:37:47;9.70;99.90
11540;DHT22;5826;54.756;9.192;2022-09-21T01:40:28;9.60;99.90
11540;DHT22;5826;54.756;9.192;2022-09-21T01:42:56;9.60;99.90
11540;DHT22;5826;54.756;9.192;2022-09-21T01:45:28;9.60;99.90
11540;DHT22;5826;54.756;9.192;2022-09-21T01:47:58;9.60;99.90
11540;DHT22;5826;54.756;9.192;2022-09-21T01:50:28;9.60;99.90
11540;DHT22;5826;54.756;9.192;2022-09-21T01:53:00;9.60;99.90
11540;DHT22;5826;54.756;9.192;2022-09-21T01:55:33;9.50;99.90
11540;DHT22;5826;54.756;9.192;2022-09-21T01:58:18;9.50;99.90
11540;DHT22;5826;54.756;9.192;2022-09-21T02:00:47;9.50;99.90
11540;DHT22;5826;54.756;9.192;2022-09-21T02:03:35;9.50;99.90
11540;DHT22;5826;54.756;9.192;2022-09-21T02:06:02;9.50;99.90
11540;DHT22;5826;54.756;9.192;2022-09-21T02:08:30;9.40;99.90
11540;DHT22;5826;54.756;9.192;2022-09-21T02:11:01;9.40;99.90
11540;DHT22;5826;54.756;9.192;2022-09-21T02:13:31;9.40;99.90
11540;DHT22;5826;54.756;9.192;2022-09-21T02:21:02;9.40;99.90
11540;DHT22;5826;54.756;9.192;2022-09-21T02:23:41;9.30;99.90
11540;DHT22;5826;54.756;9.192;2022-09-21T02:28:54;9.30;99.90
11540;DHT22;5826;54.756;9.192;2022-09-21T02:31:52;9.30;99.90
11540;DHT22;5826;54.756;9.192;2022-09-21T02:34:52;9.30;99.90
11540;DHT22;5826;54.756;9.192;2022-09-21T02:40:34;9.20;99.90
11540;DHT22;5826;54.756;9.192;2022-09-21T02:43:05;9.10;99.90
11540;DHT22;5826;54.756;9.192;2022-09-21T02:45:43;9.10;99.90
11540;DHT22;5826;54.756;9.192;2022-09-21T02:48:17;9.10;99.90
11540;DHT22;5826;54.756;9.192;2022-09-21T02:50:49;9.10;99.90
11540;DHT22;5826;54.756;9.192;2022-09-21T02:53:23;9.10;99.90
11540;DHT22;5826;54.756;9.192;2022-09-21T02:55:50;9.00;99.90
11540;DHT22;5826;54.756;9.192;2022-09-21T02:58:17;9.00;99.90
11540;DHT22;5826;54.756;9.192;2022-09-21T03:00:44;9.00;99.90
11540;DHT22;5826;54.756;9.192;2022-09-21T03:03:21;9.00;99.90
11540;DHT22;5826;54.756;9.192;2022-09-21T03:05:50;9.00;99.90
11540;DHT22;5826;54.756;9.192;2022-09-21T03:08:16;8.90;99.90
11540;DHT22;5826;54.756;9.192;2022-09-21T03:10:42;8.90;99.90
11540;DHT22;5826;54.756;9.192;2022-09-21T03:13:08;8.90;99.90
11540;DHT22;5826;54.756;9.192;2022-09-21T03:15:38;8.90;99.90
11540;DHT22;5826;54.756;9.192;2022-09-21T03:18:05;8.90;99.90
11540;DHT22;5826;54.756;9.192;2022-09-21T03:20:32;8.90;99.90
11540;DHT22;5826;54.756;9.192;2022-09-21T03:22:58;8.80;99.90
11540;DHT22;5826;54.756;9.192;2022-09-21T03:25:25;8.80;99.90
11540;DHT22;5826;54.756;9.192;2022-09-21T03:27:51;8.80;99.90
11540;DHT22;5826;54.756;9.192;2022-09-21T03:30:18;8.80;99.90
11540;DHT22;5826;54.756;9.192;2022-09-21T03:32:45;8.70;99.90
11540;DHT22;5826;54.756;9.192;2022-09-21T03:35:12;8.70;99.90
11540;DHT22;5826;54.756;9.192;2022-09-21T03:37:38;8.70;99.90
11540;DHT22;5826;54.756;9.192;2022-09-21T03:40:03;8.70;99.90
11540;DHT22;5826;54.756;9.192;2022-09-21T03:42:29;8.70;99.90
11540;DHT22;5826;54.756;9.192;2022-09-21T03:44:55;8.70;99.90
11540;DHT22;5826;54.756;9.192;2022-09-21T03:47:20;8.60;99.90
11540;DHT22;5826;54.756;9.192;2022-09-21T03:49:45;8.60;99.90
11540;DHT22;5826;54.756;9.192;2022-09-21T03:52:11;8.60;99.90
11540;DHT22;5826;54.756;9.192;2022-09-21T03:54:36;8.60;99.90
11540;DHT22;5826;54.756;9.192;2022-09-21T03:57:02;8.60;99.90
11540;DHT22;5826;54.756;9.192;2022-09-21T03:59:27;8.60;99.90
11540;DHT22;5826;54.756;9.192;2022-09-21T04:01:53;8.50;99.90
11540;DHT22;5826;54.756;9.192;2022-09-21T04:04:18;8.50;99.90
11540;DHT22;5826;54.756;9.192;2022-09-21T04:06:44;8.50;99.90
11540;DHT22;5826;54.756;9.192;2022-09-21T04:09:10;8.50;99.90
11540;DHT22;5826;54.756;9.192;2022-09-21T04:11:36;8.40;99.90
11540;DHT22;5826;54.756;9.192;2022-09-21T04:14:02;8.40;99.90
11540;DHT22;5826;54.756;9.192;2022-09-21T04:16:27;8.40;99.90
11540;DHT22;5826;54.756;9.192;2022-09-21T04:18:53;8.40;99.90
11540;DHT22;5826;54.756;9.192;2022-09-21T04:21:19;8.40;99.90
11540;DHT22;5826;54.756;9.192;2022-09-21T04:23:45;8.40;99.90
11540;DHT22;5826;54.756;9.192;2022-09-21T04:26:29;8.40;99.90
11540;DHT22;5826;54.756;9.192;2022-09-21T04:28:55;8.40;99.90
11540;DHT22;5826;54.756;9.192;2022-09-21T04:31:22;8.40;99.90
11540;DHT22;5826;54.756;9.192;2022-09-21T04:33:52;8.40;99.90
11540;DHT22;5826;54.756;9.192;2022-09-21T04:36:19;8.40;99.90
11540;DHT22;5826;54.756;9.192;2022-09-21T04:38:46;8.30;99.90
11540;DHT22;5826;54.756;9.192;2022-09-21T04:41:12;8.30;99.90
11540;DHT22;5826;54.756;9.192;2022-09-21T04:43:40;8.30;99.90
11540;DHT22;5826;54.756;9.192;2022-09-21T04:46:11;8.30;99.90
11540;DHT22;5826;54.756;9.192;2022-09-21T04:48:38;8.30;99.90
11540;DHT22;5826;54.756;9.192;2022-09-21T04:51:04;8.20;99.90
11540;DHT22;5826;54.756;9.192;2022-09-21T04:53:33;8.20;99.90
11540;DHT22;5826;54.756;9.192;2022-09-21T04:55:59;8.30;99.90
11540;DHT22;5826;54.756;9.192;2022-09-21T04:58:25;8.20;99.90
11540;DHT22;5826;54.756;9.192;2022-09-21T05:00:51;8.20;99.90
11540;DHT22;5826;54.756;9.192;2022-09-21T05:03:18;8.20;99.90
11540;DHT22;5826;54.756;9.192;2022-09-21T05:05:54;8.20;99.90
11540;DHT22;5826;54.756;9.192;2022-09-21T05:08:20;8.10;99.90
11540;DHT22;5826;54.756;9.192;2022-09-21T05:11:06;8.20;99.90
11540;DHT22;5826;54.756;9.192;2022-09-21T05:13:32;8.20;99.90
11540;DHT22;5826;54.756;9.192;2022-09-21T05:15:57;8.10;99.90
11540;DHT22;5826;54.756;9.192;2022-09-21T05:18:23;8.10;99.90
11540;DHT22;5826;54.756;9.192;2022-09-21T05:20:55;8.10;99.90
11540;DHT22;5826;54.756;9.192;2022-09-21T05:23:22;8.10;99.90
11540;DHT22;5826;54.756;9.192;2022-09-21T05:25:48;8.00;99.90
11540;DHT22;5826;54.756;9.192;2022-09-21T05:28:14;8.10;99.90
11540;DHT22;5826;54.756;9.192;2022-09-21T05:30:40;8.10;99.90
11540;DHT22;5826;54.756;9.192;2022-09-21T05:33:07;8.00;99.90
11540;DHT22;5826;54.756;9.192;2022-09-21T05:36:08;8.10;99.90
11540;DHT22;5826;54.756;9.192;2022-09-21T05:38:36;8.10;99.90
11540;DHT22;5826;54.756;9.192;2022-09-21T05:41:01;8.20;99.90
11540;DHT22;5826;54.756;9.192;2022-09-21T05:43:28;8.20;99.90
11540;DHT22;5826;54.756;9.192;2022-09-21T05:46:04;8.20;99.90
11540;DHT22;5826;54.756;9.192;2022-09-21T05:48:39;8.30;99.90
11540;DHT22;5826;54.756;9.192;2022-09-21T05:51:27;8.30;99.90
11540;DHT22;5826;54.756;9.192;2022-09-21T05:56:42;8.30;99.90
11540;DHT22;5826;54.756;9.192;2022-09-21T06:04:51;8.40;99.90
11540;DHT22;5826;54.756;9.192;2022-09-21T06:07:18;8.40;99.90
11540;DHT22;5826;54.756;9.192;2022-09-21T06:09:44;8.40;99.90
11540;DHT22;5826;54.756;9.192;2022-09-21T06:12:09;8.40;99.90
11540;DHT22;5826;54.756;9.192;2022-09-21T06:14:36;8.30;99.90
11540;DHT22;5826;54.756;9.192;2022-09-21T06:17:01;8.40;99.90
11540;DHT22;5826;54.756;9.192;2022-09-21T06:19:27;8.40;99.90
11540;DHT22;5826;54.756;9.192;2022-09-21T06:21:52;8.40;99.90
11540;DHT22;5826;54.756;9.192;2022-09-21T06:24:18;8.50;99.90
11540;DHT22;5826;54.756;9.192;2022-09-21T06:26:43;8.50;99.90
11540;DHT22;5826;54.756;9.192;2022-09-21T06:29:09;8.50;99.90
11540;DHT22;5826;54.756;9.192;2022-09-21T06:31:34;8.60;99.90
11540;DHT22;5826;54.756;9.192;2022-09-21T06:34:00;8.60;99.90
11540;DHT22;5826;54.756;9.192;2022-09-21T06:36:26;8.70;99.90
11540;DHT22;5826;54.756;9.192;2022-09-21T06:38:51;8.80;99.90
11540;DHT22;5826;54.756;9.192;2022-09-21T06:41:17;8.80;99.90
11540;DHT22;5826;54.756;9.192;2022-09-21T06:43:42;8.90;99.90
11540;DHT22;5826;54.756;9.192;2022-09-21T06:46:08;9.00;99.90
11540;DHT22;5826;54.756;9.192;2022-09-21T06:48:34;9.10;99.90
11540;DHT22;5826;54.756;9.192;2022-09-21T06:51:01;9.20;99.90
11540;DHT22;5826;54.756;9.192;2022-09-21T06:53:28;9.30;99.90
11540;DHT22;5826;54.756;9.192;2022-09-21T06:56:00;9.40;99.90
11540;DHT22;5826;54.756;9.192;2022-09-21T06:58:26;9.50;99.90
11540;DHT22;5826;54.756;9.192;2022-09-21T07:00:51;9.60;99.90
11540;DHT22;5826;54.756;9.192;2022-09-21T07:03:17;9.70;99.90
11540;DHT22;5826;54.756;9.192;2022-09-21T07:05:44;9.80;99.90
11540;DHT22;5826;54.756;9.192;2022-09-21T07:08:10;9.90;99.90
11540;DHT22;5826;54.756;9.192;2022-09-21T07:10:36;10.00;99.90
11540;DHT22;5826;54.756;9.192;2022-09-21T07:13:03;10.20;99.90
11540;DHT22;5826;54.756;9.192;2022-09-21T07:15:30;10.20;99.90
11540;DHT22;5826;54.756;9.192;2022-09-21T07:17:56;10.30;99.90
11540;DHT22;5826;54.756;9.192;2022-09-21T07:20:22;10.40;99.90
11540;DHT22;5826;54.756;9.192;2022-09-21T07:22:48;10.50;99.90
11540;DHT22;5826;54.756;9.192;2022-09-21T07:25:13;10.50;99.90
11540;DHT22;5826;54.756;9.192;2022-09-21T07:27:39;10.60;99.90
11540;DHT22;5826;54.756;9.192;2022-09-21T07:30:06;10.80;99.90
11540;DHT22;5826;54.756;9.192;2022-09-21T07:32:31;10.90;99.90
11540;DHT22;5826;54.756;9.192;2022-09-21T07:34:57;11.00;99.90
11540;DHT22;5826;54.756;9.192;2022-09-21T07:37:23;11.10;99.90
11540;DHT22;5826;54.756;9.192;2022-09-21T07:39:50;11.30;99.90
11540;DHT22;5826;54.756;9.192;2022-09-21T07:42:16;11.40;99.90
11540;DHT22;5826;54.756;9.192;2022-09-21T07:44:45;11.40;99.90
11540;DHT22;5826;54.756;9.192;2022-09-21T07:47:10;11.60;99.90
11540;DHT22;5826;54.756;9.192;2022-09-21T07:49:36;11.60;99.90
11540;DHT22;5826;54.756;9.192;2022-09-21T07:52:02;11.70;99.90
11540;DHT22;5826;54.756;9.192;2022-09-21T07:54:27;11.80;99.90
11540;DHT22;5826;54.756;9.192;2022-09-21T07:56:53;11.90;99.90
11540;DHT22;5826;54.756;9.192;2022-09-21T07:59:37;12.00;99.90
11540;DHT22;5826;54.756;9.192;2022-09-21T08:02:02;12.10;99.90
11540;DHT22;5826;54.756;9.192;2022-09-21T08:04:28;12.20;99.90
11540;DHT22;5826;54.756;9.192;2022-09-21T08:06:53;12.30;99.90
11540;DHT22;5826;54.756;9.192;2022-09-21T08:09:19;12.40;99.90
11540;DHT22;5826;54.756;9.192;2022-09-21T08:11:44;12.50;99.90
11540;DHT22;5826;54.756;9.192;2022-09-21T08:14:11;12.60;99.90
11540;DHT22;5826;54.756;9.192;2022-09-21T08:16:44;12.70;99.90
11540;DHT22;5826;54.756;9.192;2022-09-21T08:19:10;12.80;99.90
11540;DHT22;5826;54.756;9.192;2022-09-21T08:21:35;12.90;99.90
11540;DHT22;5826;54.756;9.192;2022-09-21T08:24:01;12.90;99.90
11540;DHT22;5826;54.756;9.192;2022-09-21T08:26:27;13.00;99.90
11540;DHT22;5826;54.756;9.192;2022-09-21T08:28:53;13.10;99.90
11540;DHT22;5826;54.756;9.192;2022-09-21T08:31:20;13.20;99.90
11540;DHT22;5826;54.756;9.192;2022-09-21T08:33:47;13.30;99.90
11540;DHT22;5826;54.756;9.192;2022-09-21T08:36:14;13.40;99.90
11540;DHT22;5826;54.756;9.192;2022-09-21T08:38:39;13.50;99.90
11540;DHT22;5826;54.756;9.192;2022-09-21T08:41:33;13.60;99.90
11540;DHT22;5826;54.756;9.192;2022-09-21T08:44:06;13.60;99.90
11540;DHT22;5826;54.756;9.192;2022-09-21T08:46:36;13.70;99.90
11540;DHT22;5826;54.756;9.192;2022-09-21T08:49:04;13.70;99.90
11540;DHT22;5826;54.756;9.192;2022-09-21T08:51:34;13.90;99.90
11540;DHT22;5826;54.756;9.192;2022-09-21T08:54:08;14.00;99.90
11540;DHT22;5826;54.756;9.192;2022-09-21T08:56:36;14.00;99.90
11540;DHT22;5826;54.756;9.192;2022-09-21T08:59:02;14.10;99.90
11540;DHT22;5826;54.756;9.192;2022-09-21T09:04:24;14.30;99.90
11540;DHT22;5826;54.756;9.192;2022-09-21T09:12:53;14.70;99.90
11540;DHT22;5826;54.756;9.192;2022-09-21T09:20:52;15.20;99.90
11540;DHT22;5826;54.756;9.192;2022-09-21T09:23:31;15.30;99.90
11540;DHT22;5826;54.756;9.192;2022-09-21T09:26:03;15.40;99.90
11540;DHT22;5826;54.756;9.192;2022-09-21T09:28:35;15.40;99.90
11540;DHT22;5826;54.756;9.192;2022-09-21T09:31:17;15.50;99.90
11540;DHT22;5826;54.756;9.192;2022-09-21T09:33:57;15.60;99.90
11540;DHT22;5826;54.756;9.192;2022-09-21T09:36:30;15.70;99.90
11540;DHT22;5826;54.756;9.192;2022-09-21T09:39:00;15.80;99.90
11540;DHT22;5826;54.756;9.192;2022-09-21T09:41:49;15.90;99.90
11540;DHT22;5826;54.756;9.192;2022-09-21T09:50:03;16.10;99.90
11540;DHT22;5826;54.756;9.192;2022-09-21T09:52:30;16.00;99.90
11540;DHT22;5826;54.756;9.192;2022-09-21T09:54:58;15.90;99.90
11540;DHT22;5826;54.756;9.192;2022-09-21T09:57:31;16.10;99.90
11540;DHT22;5826;54.756;9.192;2022-09-21T10:00:01;16.20;99.90
11540;DHT22;5826;54.756;9.192;2022-09-21T10:02:28;16.60;99.90
11540;DHT22;5826;54.756;9.192;2022-09-21T10:04:58;16.70;99.90
11540;DHT22;5826;54.756;9.192;2022-09-21T10:07:40;16.90;99.90
11540;DHT22;5826;54.756;9.192;2022-09-21T10:10:31;17.20;99.90
11540;DHT22;5826;54.756;9.192;2022-09-21T10:13:22;17.30;99.90
11540;DHT22;5826;54.756;9.192;2022-09-21T10:18:42;17.70;99.90
11540;DHT22;5826;54.756;9.192;2022-09-21T10:23:47;17.50;99.90
11540;DHT22;5826;54.756;9.192;2022-09-21T10:26:13;17.30;99.90
11540;DHT22;5826;54.756;9.192;2022-09-21T10:28:54;17.10;99.90
11540;DHT22;5826;54.756;9.192;2022-09-21T10:31:25;16.80;99.90
11540;DHT22;5826;54.756;9.192;2022-09-21T10:34:06;16.60;99.90
11540;DHT22;5826;54.756;9.192;2022-09-21T10:36:37;16.40;99.90
11540;DHT22;5826;54.756;9.192;2022-09-21T10:41:40;16.10;99.90
11540;DHT22;5826;54.756;9.192;2022-09-21T10:44:15;16.10;99.90
11540;DHT22;5826;54.756;9.192;2022-09-21T10:46:41;16.30;99.90
11540;DHT22;5826;54.756;9.192;2022-09-21T10:49:15;16.60;99.90
11540;DHT22;5826;54.756;9.192;2022-09-21T10:51:44;16.80;99.90
11540;DHT22;5826;54.756;9.192;2022-09-21T10:54:20;17.00;99.90
11540;DHT22;5826;54.756;9.192;2022-09-21T10:57:02;17.10;99.90
11540;DHT22;5826;54.756;9.192;2022-09-21T10:59:31;17.30;99.90
11540;DHT22;5826;54.756;9.192;2022-09-21T11:01:59;17.30;99.90
11540;DHT22;5826;54.756;9.192;2022-09-21T11:04:45;17.20;99.90
11540;DHT22;5826;54.756;9.192;2022-09-21T11:13:20;16.90;99.90
11540;DHT22;5826;54.756;9.192;2022-09-21T11:29:26;16.50;99.30
11540;DHT22;5826;54.756;9.192;2022-09-21T11:40:58;16.40;99.80
11540;DHT22;5826;54.756;9.192;2022-09-21T11:43:39;16.40;99.90
11540;DHT22;5826;54.756;9.192;2022-09-21T11:49:21;16.50;99.80
11540;DHT22;5826;54.756;9.192;2022-09-21T11:54:49;17.20;99.70
11540;DHT22;5826;54.756;9.192;2022-09-21T11:57:19;17.50;99.30
11540;DHT22;5826;54.756;9.192;2022-09-21T12:05:35;17.60;99.00
11540;DHT22;5826;54.756;9.192;2022-09-21T12:16:41;18.30;97.90
11540;DHT22;5826;54.756;9.192;2022-09-21T12:21:57;18.70;97.90
11540;DHT22;5826;54.756;9.192;2022-09-21T12:24:30;18.90;97.00
11540;DHT22;5826;54.756;9.192;2022-09-21T12:27:05;19.20;97.40
11540;DHT22;5826;54.756;9.192;2022-09-21T12:30:18;19.40;96.90
11540;DHT22;5826;54.756;9.192;2022-09-21T12:32:45;19.70;96.60
11540;DHT22;5826;54.756;9.192;2022-09-21T12:38:09;20.10;96.00
11540;DHT22;5826;54.756;9.192;2022-09-21T12:40:51;20.20;96.00
11540;DHT22;5826;54.756;9.192;2022-09-21T12:48:47;20.20;95.50
11540;DHT22;5826;54.756;9.192;2022-09-21T12:51:34;20.30;94.90
11540;DHT22;5826;54.756;9.192;2022-09-21T12:54:08;20.50;95.00
11540;DHT22;5826;54.756;9.192;2022-09-21T12:57:05;20.80;95.10
11540;DHT22;5826;54.756;9.192;2022-09-21T13:00:00;21.00;94.80
11540;DHT22;5826;54.756;9.192;2022-09-21T13:02:33;21.10;94.70
11540;DHT22;5826;54.756;9.192;2022-09-21T13:08:03;21.60;93.70
11540;DHT22;5826;54.756;9.192;2022-09-21T13:13:05;22.00;93.30
11540;DHT22;5826;54.756;9.192;2022-09-21T13:15:45;22.30;93.20
11540;DHT22;5826;54.756;9.192;2022-09-21T13:20:52;22.50;92.60
11540;DHT22;5826;54.756;9.192;2022-09-21T13:23:37;22.80;92.50
11540;DHT22;5826;54.756;9.192;2022-09-21T13:26:09;23.20;92.30
11540;DHT22;5826;54.756;9.192;2022-09-21T13:34:41;24.90;91.30
11540;DHT22;5826;54.756;9.192;2022-09-21T13:44:58;27.30;91.20
11540;DHT22;5826;54.756;9.192;2022-09-21T13:47:31;28.20;90.90
11540;DHT22;5826;54.756;9.192;2022-09-21T13:49:59;29.60;87.90
11540;DHT22;5826;54.756;9.192;2022-09-21T13:52:37;31.90;87.40
11540;DHT22;5826;54.756;9.192;2022-09-21T13:55:14;32.90;73.70
11540;DHT22;5826;54.756;9.192;2022-09-21T13:57:47;34.50;78.10
11540;DHT22;5826;54.756;9.192;2022-09-21T14:02:57;37.90;69.00
11540;DHT22;5826;54.756;9.192;2022-09-21T14:05:39;39.10;64.90
11540;DHT22;5826;54.756;9.192;2022-09-21T14:10:54;41.60;61.80
11540;DHT22;5826;54.756;9.192;2022-09-21T14:13:37;42.50;59.10
11540;DHT22;5826;54.756;9.192;2022-09-21T14:18:53;39.20;63.20
11540;DHT22;5826;54.756;9.192;2022-09-21T14:21:19;40.00;66.50
11540;DHT22;5826;54.756;9.192;2022-09-21T14:24:15;40.00;67.70
11540;DHT22;5826;54.756;9.192;2022-09-21T14:31:40;35.80;76.20
11540;DHT22;5826;54.756;9.192;2022-09-21T14:34:13;35.70;76.80
11540;DHT22;5826;54.756;9.192;2022-09-21T14:36:43;37.60;73.10
11540;DHT22;5826;54.756;9.192;2022-09-21T14:39:23;39.20;74.40
11540;DHT22;5826;54.756;9.192;2022-09-21T14:41:53;40.90;67.40
11540;DHT22;5826;54.756;9.192;2022-09-21T14:44:27;42.00;73.50
11540;DHT22;5826;54.756;9.192;2022-09-21T15:00:38;46.30;71.50
11540;DHT22;5826;54.756;9.192;2022-09-21T15:06:18;46.50;63.30
11540;DHT22;5826;54.756;9.192;2022-09-21T15:09:15;46.40;72.40
11540;DHT22;5826;54.756;9.192;2022-09-21T15:12:58;46.50;70.90
11540;DHT22;5826;54.756;9.192;2022-09-21T15:15:50;46.80;65.30
11540;DHT22;5826;54.756;9.192;2022-09-21T15:18:22;45.90;67.50
11540;DHT22;5826;54.756;9.192;2022-09-21T15:20:58;44.20;72.80
11540;DHT22;5826;54.756;9.192;2022-09-21T15:23:33;42.80;75.40
11540;DHT22;5826;54.756;9.192;2022-09-21T15:26:14;42.00;75.60
11540;DHT22;5826;54.756;9.192;2022-09-21T15:28:45;41.50;76.60
11540;DHT22;5826;54.756;9.192;2022-09-21T15:31:16;41.40;76.30
11540;DHT22;5826;54.756;9.192;2022-09-21T15:33:43;41.90;75.10
11540;DHT22;5826;54.756;9.192;2022-09-21T15:36:23;42.20;74.70
11540;DHT22;5826;54.756;9.192;2022-09-21T15:38:50;42.70;70.50
11540;DHT22;5826;54.756;9.192;2022-09-21T15:41:38;43.40;74.00
11540;DHT22;5826;54.756;9.192;2022-09-21T15:44:20;43.80;70.90
11540;DHT22;5826;54.756;9.192;2022-09-21T15:46:49;44.10;72.20
11540;DHT22;5826;54.756;9.192;2022-09-21T15:49:18;43.90;71.10
11540;DHT22;5826;54.756;9.192;2022-09-21T15:51:55;42.50;75.00
11540;DHT22;5826;54.756;9.192;2022-09-21T15:54:36;41.10;73.70
11540;DHT22;5826;54.756;9.192;2022-09-21T15:57:05;38.80;77.50
11540;DHT22;5826;54.756;9.192;2022-09-21T15:59:48;36.00;81.00
11540;DHT22;5826;54.756;9.192;2022-09-21T16:02:20;33.10;84.90
11540;DHT22;5826;54.756;9.192;2022-09-21T16:04:47;30.70;86.60
11540;DHT22;5826;54.756;9.192;2022-09-21T16:07:32;28.80;88.30
11540;DHT22;5826;54.756;9.192;2022-09-21T16:09:58;27.00;87.70
11540;DHT22;5826;54.756;9.192;2022-09-21T16:12:38;25.60;90.00
11540;DHT22;5826;54.756;9.192;2022-09-21T16:15:24;24.50;90.50
11540;DHT22;5826;54.756;9.192;2022-09-21T16:18:00;23.70;90.00
11540;DHT22;5826;54.756;9.192;2022-09-21T16:20:43;23.10;90.70
11540;DHT22;5826;54.756;9.192;2022-09-21T16:23:13;22.60;90.50
11540;DHT22;5826;54.756;9.192;2022-09-21T16:25:39;22.00;90.80
11540;DHT22;5826;54.756;9.192;2022-09-21T16:30:47;21.10;90.50
11540;DHT22;5826;54.756;9.192;2022-09-21T16:33:39;20.70;90.80
11540;DHT22;5826;54.756;9.192;2022-09-21T16:38:50;20.10;90.90
11540;DHT22;5826;54.756;9.192;2022-09-21T16:41:18;19.70;90.80
11540;DHT22;5826;54.756;9.192;2022-09-21T16:43:44;19.50;91.00
11540;DHT22;5826;54.756;9.192;2022-09-21T16:46:10;19.30;90.90
11540;DHT22;5826;54.756;9.192;2022-09-21T16:48:36;19.10;90.90
11540;DHT22;5826;54.756;9.192;2022-09-21T16:51:01;18.90;90.80
11540;DHT22;5826;54.756;9.192;2022-09-21T16:53:27;18.70;90.80
11540;DHT22;5826;54.756;9.192;2022-09-21T16:55:53;18.60;90.40
11540;DHT22;5826;54.756;9.192;2022-09-21T16:58:22;18.40;90.70
11540;DHT22;5826;54.756;9.192;2022-09-21T17:00:52;18.30;90.70
11540;DHT22;5826;54.756;9.192;2022-09-21T17:03:18;18.20;90.90
11540;DHT22;5826;54.756;9.192;2022-09-21T17:05:44;18.00;91.00
11540;DHT22;5826;54.756;9.192;2022-09-21T17:08:10;17.90;90.90
11540;DHT22;5826;54.756;9.192;2022-09-21T17:10:39;17.70;91.10
11540;DHT22;5826;54.756;9.192;2022-09-21T17:13:05;17.50;91.10
11540;DHT22;5826;54.756;9.192;2022-09-21T17:15:33;17.40;91.20
11540;DHT22;5826;54.756;9.192;2022-09-21T17:18:00;17.20;91.30
11540;DHT22;5826;54.756;9.192;2022-09-21T17:20:32;17.00;91.40
11540;DHT22;5826;54.756;9.192;2022-09-21T17:22:58;16.90;91.50
11540;DHT22;5826;54.756;9.192;2022-09-21T17:25:24;16.70;91.50
11540;DHT22;5826;54.756;9.192;2022-09-21T17:27:50;16.60;91.50
11540;DHT22;5826;54.756;9.192;2022-09-21T17:30:17;16.50;91.60
11540;DHT22;5826;54.756;9.192;2022-09-21T17:32:42;16.40;91.70
11540;DHT22;5826;54.756;9.192;2022-09-21T17:37:56;16.20;91.70
11540;DHT22;5826;54.756;9.192;2022-09-21T17:40:22;16.00;91.70
11540;DHT22;5826;54.756;9.192;2022-09-21T17:42:49;15.90;91.70
11540;DHT22;5826;54.756;9.192;2022-09-21T17:47:51;15.70;91.80
11540;DHT22;5826;54.756;9.192;2022-09-21T17:50:22;15.60;91.90
11540;DHT22;5826;54.756;9.192;2022-09-21T17:52:50;15.50;91.90
11540;DHT22;5826;54.756;9.192;2022-09-21T17:55:35;15.40;92.10
11540;DHT22;5826;54.756;9.192;2022-09-21T17:58:20;15.30;92.20
11540;DHT22;5826;54.756;9.192;2022-09-21T18:01:00;15.20;92.10
11540;DHT22;5826;54.756;9.192;2022-09-21T18:03:30;15.10;92.30
11540;DHT22;5826;54.756;9.192;2022-09-21T18:05:57;15.00;92.40
11540;DHT22;5826;54.756;9.192;2022-09-21T18:08:30;14.90;92.60
11540;DHT22;5826;54.756;9.192;2022-09-21T18:11:28;14.90;92.60
11540;DHT22;5826;54.756;9.192;2022-09-21T18:14:22;14.80;92.70
11540;DHT22;5826;54.756;9.192;2022-09-21T18:17:31;14.70;93.00
11540;DHT22;5826;54.756;9.192;2022-09-21T18:25:30;14.50;93.10
11540;DHT22;5826;54.756;9.192;2022-09-21T18:27:57;14.40;93.30
11540;DHT22;5826;54.756;9.192;2022-09-21T18:30:24;14.40;93.50
11540;DHT22;5826;54.756;9.192;2022-09-21T18:35:59;14.30;93.60
11540;DHT22;5826;54.756;9.192;2022-09-21T18:38:37;14.20;93.40
11540;DHT22;5826;54.756;9.192;2022-09-21T18:41:17;14.20;93.30
11540;DHT22;5826;54.756;9.192;2022-09-21T18:47:04;14.00;93.70
11540;DHT22;5826;54.756;9.192;2022-09-21T18:52:12;13.90;93.70
11540;DHT22;5826;54.756;9.192;2022-09-21T18:54:41;13.80;93.70
11540;DHT22;5826;54.756;9.192;2022-09-21T18:57:10;13.80;93.80
11540;DHT22;5826;54.756;9.192;2022-09-21T18:59:36;13.70;93.70
11540;DHT22;5826;54.756;9.192;2022-09-21T19:02:02;13.70;93.90
11540;DHT22;5826;54.756;9.192;2022-09-21T19:04:28;13.70;94.00
11540;DHT22;5826;54.756;9.192;2022-09-21T19:07:12;13.60;93.90
11540;DHT22;5826;54.756;9.192;2022-09-21T19:10:02;13.60;94.00
11540;DHT22;5826;54.756;9.192;2022-09-21T19:17:54;13.40;94.20
11540;DHT22;5826;54.756;9.192;2022-09-21T19:32:17;13.20;94.50
11540;DHT22;5826;54.756;9.192;2022-09-21T19:34:43;13.10;94.40
11540;DHT22;5826;54.756;9.192;2022-09-21T19:37:08;13.10;94.60
11540;DHT22;5826;54.756;9.192;2022-09-21T19:39:35;13.00;94.50
11540;DHT22;5826;54.756;9.192;2022-09-21T19:42:20;13.00;94.70
11540;DHT22;5826;54.756;9.192;2022-09-21T19:45:04;13.00;94.80
11540;DHT22;5826;54.756;9.192;2022-09-21T19:47:49;13.00;95.00
11540;DHT22;5826;54.756;9.192;2022-09-21T19:50:21;12.90;94.90
11540;DHT22;5826;54.756;9.192;2022-09-21T19:52:48;12.90;94.90